sensor_id;sensor_type;location;lat;lon;timestamp;temperature;humidity
13713;DHT22;6928;50.546;7.120;2023-06-26T00:00:44;21.32;68.72
13713;DHT22;6928;50.546;7.120;2023-06-26T00:03:12;21.42;68.32
13713;DHT22;6928;50.546;7.120;2023-06-26T00:05:40;21.34;68.58
13713;DHT22;6928;50.546;7.120;2023-06-26T00:08:07;21.23;69.11
13713;DHT22;6928;50.546;7.120;2023-06-26T00:10:34;21.02;69.79
13713;DHT22;6928;50.546;7.120;2023-06-26T00:13:00;21.09;69.51
13713;DHT22;6928;50.546;7.120;2023-06-26T00:15:28;21.06;69.50
13713;DHT22;6928;50.546;7.120;2023-06-26T00:17:57;21.13;69.31
13713;DHT22;6928;50.546;7.120;2023-06-26T00:20:24;21.12;69.41
13713;DHT22;6928;50.546;7.120;2023-06-26T00:22:51;21.06;69.54
13713;DHT22;6928;50.546;7.120;2023-06-26T00:25:19;21.06;69.47
13713;DHT22;6928;50.546;7.120;2023-06-26T00:27:45;21.00;69.79
13713;DHT22;6928;50.546;7.120;2023-06-26T00:30:12;20.96;69.73
13713;DHT22;6928;50.546;7.120;2023-06-26T00:32:40;21.03;69.54
13713;DHT22;6928;50.546;7.120;2023-06-26T00:35:07;20.98;69.59
13713;DHT22;6928;50.546;7.120;2023-06-26T00:37:33;20.96;69.77
13713;DHT22;6928;50.546;7.120;2023-06-26T00:40:00;20.89;70.05
13713;DHT22;6928;50.546;7.120;2023-06-26T00:42:27;20.81;70.24
13713;DHT22;6928;50.546;7.120;2023-06-26T00:44:54;20.58;70.96
13713;DHT22;6928;50.546;7.120;2023-06-26T00:47:20;20.71;70.46
13713;DHT22;6928;50.546;7.120;2023-06-26T00:53:10;20.52;70.96
13713;DHT22;6928;50.546;7.120;2023-06-26T00:55:37;20.49;71.12
13713;DHT22;6928;50.546;7.120;2023-06-26T00:58:04;20.44;71.28
13713;DHT22;6928;50.546;7.120;2023-06-26T01:00:31;20.31;71.68
13713;DHT22;6928;50.546;7.120;2023-06-26T01:02:58;20.38;71.40
13713;DHT22;6928;50.546;7.120;2023-06-26T01:05:25;19.73;73.78
13713;DHT22;6928;50.546;7.120;2023-06-26T01:07:51;19.31;75.28
13713;DHT22;6928;50.546;7.120;2023-06-26T01:10:19;19.42;74.92
13713;DHT22;6928;50.546;7.120;2023-06-26T01:12:46;20.02;72.85
13713;DHT22;6928;50.546;7.120;2023-06-26T01:15:12;20.00;72.77
13713;DHT22;6928;50.546;7.120;2023-06-26T01:17:39;19.83;72.97
13713;DHT22;6928;50.546;7.120;2023-06-26T01:20:10;19.87;72.92
13713;DHT22;6928;50.546;7.120;2023-06-26T01:22:41;19.89;73.02
13713;DHT22;6928;50.546;7.120;2023-06-26T01:25:15;19.85;73.58
13713;DHT22;6928;50.546;7.120;2023-06-26T01:27:46;19.90;72.99
13713;DHT22;6928;50.546;7.120;2023-06-26T01:30:16;19.89;72.92
13713;DHT22;6928;50.546;7.120;2023-06-26T01:32:43;19.83;73.16
13713;DHT22;6928;50.546;7.120;2023-06-26T01:35:11;19.72;73.76
13713;DHT22;6928;50.546;7.120;2023-06-26T01:37:37;19.80;73.49
13713;DHT22;6928;50.546;7.120;2023-06-26T01:40:05;19.65;73.82
13713;DHT22;6928;50.546;7.120;2023-06-26T01:42:31;19.63;73.68
13713;DHT22;6928;50.546;7.120;2023-06-26T01:45:02;19.59;73.87
13713;DHT22;6928;50.546;7.120;2023-06-26T01:47:32;19.58;73.89
13713;DHT22;6928;50.546;7.120;2023-06-26T01:50:06;19.68;73.58
13713;DHT22;6928;50.546;7.120;2023-06-26T01:52:39;19.62;73.76
13713;DHT22;6928;50.546;7.120;2023-06-26T01:55:12;19.58;74.13
13713;DHT22;6928;50.546;7.120;2023-06-26T01:57:43;19.45;74.17
13713;DHT22;6928;50.546;7.120;2023-06-26T02:00:14;19.35;74.66
13713;DHT22;6928;50.546;7.120;2023-06-26T02:02:43;19.41;74.42
13713;DHT22;6928;50.546;7.120;2023-06-26T02:05:11;19.37;74.59
13713;DHT22;6928;50.546;7.120;2023-06-26T02:07:38;19.17;75.35
13713;DHT22;6928;50.546;7.120;2023-06-26T02:10:06;19.03;75.82
13713;DHT22;6928;50.546;7.120;2023-06-26T02:12:33;19.11;75.41
13713;DHT22;6928;50.546;7.120;2023-06-26T02:15:01;19.03;75.67
13713;DHT22;6928;50.546;7.120;2023-06-26T02:17:29;19.11;75.37
13713;DHT22;6928;50.546;7.120;2023-06-26T02:19:55;18.97;75.79
13713;DHT22;6928;50.546;7.120;2023-06-26T02:22:22;19.12;75.20
13713;DHT22;6928;50.546;7.120;2023-06-26T02:24:49;19.10;75.34
13713;DHT22;6928;50.546;7.120;2023-06-26T02:27:15;19.10;75.32
13713;DHT22;6928;50.546;7.120;2023-06-26T02:29:42;19.01;75.61
13713;DHT22;6928;50.546;7.120;2023-06-26T02:32:08;19.07;75.40
13713;DHT22;6928;50.546;7.120;2023-06-26T02:34:36;19.06;75.24
13713;DHT22;6928;50.546;7.120;2023-06-26T02:37:03;19.08;75.22
13713;DHT22;6928;50.546;7.120;2023-06-26T02:39:32;19.04;75.15
13713;DHT22;6928;50.546;7.120;2023-06-26T02:41:59;18.98;75.36
13713;DHT22;6928;50.546;7.120;2023-06-26T02:44:25;19.01;75.33
13713;DHT22;6928;50.546;7.120;2023-06-26T02:46:52;19.00;75.42
13713;DHT22;6928;50.546;7.120;2023-06-26T02:49:18;19.04;75.41
13713;DHT22;6928;50.546;7.120;2023-06-26T02:51:46;18.94;75.44
13713;DHT22;6928;50.546;7.120;2023-06-26T02:54:13;18.77;76.05
13713;DHT22;6928;50.546;7.120;2023-06-26T02:56:39;18.47;77.01
13713;DHT22;6928;50.546;7.120;2023-06-26T02:59:06;18.68;76.53
13713;DHT22;6928;50.546;7.120;2023-06-26T03:01:32;18.63;76.30
13713;DHT22;6928;50.546;7.120;2023-06-26T03:03:59;18.51;76.81
13713;DHT22;6928;50.546;7.120;2023-06-26T03:06:25;18.28;77.73
13713;DHT22;6928;50.546;7.120;2023-06-26T03:08:54;18.53;76.52
13713;DHT22;6928;50.546;7.120;2023-06-26T03:11:20;18.49;76.73
13713;DHT22;6928;50.546;7.120;2023-06-26T03:13:47;18.41;77.00
13713;DHT22;6928;50.546;7.120;2023-06-26T03:16:13;18.47;76.55
13713;DHT22;6928;50.546;7.120;2023-06-26T03:18:40;18.38;76.96
13713;DHT22;6928;50.546;7.120;2023-06-26T03:21:07;18.31;76.94
13713;DHT22;6928;50.546;7.120;2023-06-26T03:23:34;18.12;77.83
13713;DHT22;6928;50.546;7.120;2023-06-26T03:26:02;18.41;77.04
13713;DHT22;6928;50.546;7.120;2023-06-26T03:28:29;18.53;76.50
13713;DHT22;6928;50.546;7.120;2023-06-26T03:30:57;18.11;77.85
13713;DHT22;6928;50.546;7.120;2023-06-26T03:33:24;18.38;77.04
13713;DHT22;6928;50.546;7.120;2023-06-26T03:35:50;18.58;76.06
13713;DHT22;6928;50.546;7.120;2023-06-26T03:38:17;18.12;77.74
13713;DHT22;6928;50.546;7.120;2023-06-26T03:40:44;18.15;77.69
13713;DHT22;6928;50.546;7.120;2023-06-26T03:43:12;18.63;76.31
13713;DHT22;6928;50.546;7.120;2023-06-26T03:45:39;18.70;76.09
13713;DHT22;6928;50.546;7.120;2023-06-26T03:48:05;18.70;76.07
13713;DHT22;6928;50.546;7.120;2023-06-26T03:50:33;18.79;75.54
13713;DHT22;6928;50.546;7.120;2023-06-26T03:52:59;18.86;75.16
13713;DHT22;6928;50.546;7.120;2023-06-26T03:55:26;18.79;75.82
13713;DHT22;6928;50.546;7.120;2023-06-26T03:57:53;18.79;75.95
13713;DHT22;6928;50.546;7.120;2023-06-26T04:00:21;18.77;76.06
13713;DHT22;6928;50.546;7.120;2023-06-26T04:02:47;18.73;75.94
13713;DHT22;6928;50.546;7.120;2023-06-26T04:05:14;18.89;75.25
13713;DHT22;6928;50.546;7.120;2023-06-26T04:07:41;18.98;74.69
13713;DHT22;6928;50.546;7.120;2023-06-26T04:10:09;18.97;74.84
13713;DHT22;6928;50.546;7.120;2023-06-26T04:12:35;18.96;74.90
13713;DHT22;6928;50.546;7.120;2023-06-26T04:15:02;18.96;74.90
13713;DHT22;6928;50.546;7.120;2023-06-26T04:17:30;19.01;75.02
13713;DHT22;6928;50.546;7.120;2023-06-26T04:19:56;19.04;74.87
13713;DHT22;6928;50.546;7.120;2023-06-26T04:22:23;19.18;74.55
13713;DHT22;6928;50.546;7.120;2023-06-26T04:24:50;19.17;74.15
13713;DHT22;6928;50.546;7.120;2023-06-26T04:27:17;19.21;73.86
13713;DHT22;6928;50.546;7.120;2023-06-26T04:29:43;19.18;74.09
13713;DHT22;6928;50.546;7.120;2023-06-26T04:32:10;19.34;73.68
13713;DHT22;6928;50.546;7.120;2023-06-26T04:34:38;19.31;73.81
13713;DHT22;6928;50.546;7.120;2023-06-26T04:37:06;19.35;73.77
13713;DHT22;6928;50.546;7.120;2023-06-26T04:39:35;19.39;73.62
13713;DHT22;6928;50.546;7.120;2023-06-26T04:42:02;19.42;73.40
13713;DHT22;6928;50.546;7.120;2023-06-26T04:44:28;19.47;73.60
13713;DHT22;6928;50.546;7.120;2023-06-26T04:46:55;19.37;74.20
13713;DHT22;6928;50.546;7.120;2023-06-26T04:49:22;19.42;74.02
13713;DHT22;6928;50.546;7.120;2023-06-26T04:51:50;19.38;74.54
13713;DHT22;6928;50.546;7.120;2023-06-26T04:54:16;19.51;74.01
13713;DHT22;6928;50.546;7.120;2023-06-26T04:56:43;19.61;74.05
13713;DHT22;6928;50.546;7.120;2023-06-26T04:59:12;19.69;73.55
13713;DHT22;6928;50.546;7.120;2023-06-26T05:01:39;19.83;72.42
13713;DHT22;6928;50.546;7.120;2023-06-26T05:04:06;20.03;71.53
13713;DHT22;6928;50.546;7.120;2023-06-26T05:06:33;20.06;71.59
13713;DHT22;6928;50.546;7.120;2023-06-26T05:09:01;20.14;71.11
13713;DHT22;6928;50.546;7.120;2023-06-26T05:11:28;20.23;70.51
13713;DHT22;6928;50.546;7.120;2023-06-26T05:13:54;20.27;71.27
13713;DHT22;6928;50.546;7.120;2023-06-26T05:16:21;20.26;71.14
13713;DHT22;6928;50.546;7.120;2023-06-26T05:18:47;20.31;71.28
13713;DHT22;6928;50.546;7.120;2023-06-26T05:21:15;20.40;71.24
13713;DHT22;6928;50.546;7.120;2023-06-26T05:23:42;20.45;70.86
13713;DHT22;6928;50.546;7.120;2023-06-26T05:26:11;20.52;70.80
13713;DHT22;6928;50.546;7.120;2023-06-26T05:28:39;20.54;70.42
13713;DHT22;6928;50.546;7.120;2023-06-26T05:31:06;20.61;70.40
13713;DHT22;6928;50.546;7.120;2023-06-26T05:33:35;20.62;70.04
13713;DHT22;6928;50.546;7.120;2023-06-26T05:36:02;20.68;70.05
13713;DHT22;6928;50.546;7.120;2023-06-26T05:38:30;20.71;70.33
13713;DHT22;6928;50.546;7.120;2023-06-26T05:40:57;20.84;69.97
13713;DHT22;6928;50.546;7.120;2023-06-26T05:43:25;20.89;69.86
13713;DHT22;6928;50.546;7.120;2023-06-26T05:45:52;21.17;68.24
13713;DHT22;6928;50.546;7.120;2023-06-26T05:48:18;21.10;68.45
13713;DHT22;6928;50.546;7.120;2023-06-26T05:50:45;21.09;68.23
13713;DHT22;6928;50.546;7.120;2023-06-26T05:53:12;21.23;67.69
13713;DHT22;6928;50.546;7.120;2023-06-26T05:55:39;21.26;67.07
13713;DHT22;6928;50.546;7.120;2023-06-26T05:58:10;21.30;66.66
13713;DHT22;6928;50.546;7.120;2023-06-26T06:00:38;21.42;66.47
13713;DHT22;6928;50.546;7.120;2023-06-26T06:03:05;21.39;66.64
13713;DHT22;6928;50.546;7.120;2023-06-26T06:05:32;21.44;67.05
13713;DHT22;6928;50.546;7.120;2023-06-26T06:07:58;21.65;65.88
13713;DHT22;6928;50.546;7.120;2023-06-26T06:10:25;21.84;65.74
13713;DHT22;6928;50.546;7.120;2023-06-26T06:12:51;21.90;65.61
13713;DHT22;6928;50.546;7.120;2023-06-26T06:15:19;22.00;64.57
13713;DHT22;6928;50.546;7.120;2023-06-26T06:17:47;22.22;63.95
13713;DHT22;6928;50.546;7.120;2023-06-26T06:20:14;22.28;65.08
13713;DHT22;6928;50.546;7.120;2023-06-26T06:22:41;22.36;63.96
13713;DHT22;6928;50.546;7.120;2023-06-26T06:25:08;22.43;64.29
13713;DHT22;6928;50.546;7.120;2023-06-26T06:27:34;22.63;64.12
13713;DHT22;6928;50.546;7.120;2023-06-26T06:30:01;22.63;64.59
13713;DHT22;6928;50.546;7.120;2023-06-26T06:32:28;22.64;64.81
13713;DHT22;6928;50.546;7.120;2023-06-26T06:34:56;22.56;65.42
13713;DHT22;6928;50.546;7.120;2023-06-26T06:37:22;22.64;65.75
13713;DHT22;6928;50.546;7.120;2023-06-26T06:39:49;22.63;66.21
13713;DHT22;6928;50.546;7.120;2023-06-26T06:42:15;22.62;65.64
13713;DHT22;6928;50.546;7.120;2023-06-26T06:44:42;22.56;65.45
13713;DHT22;6928;50.546;7.120;2023-06-26T06:47:08;22.79;65.64
13713;DHT22;6928;50.546;7.120;2023-06-26T06:49:35;22.91;65.40
13713;DHT22;6928;50.546;7.120;2023-06-26T06:52:04;23.15;65.61
13713;DHT22;6928;50.546;7.120;2023-06-26T06:54:30;23.15;65.82
13713;DHT22;6928;50.546;7.120;2023-06-26T06:56:57;22.88;66.27
13713;DHT22;6928;50.546;7.120;2023-06-26T06:59:23;22.64;66.78
13713;DHT22;6928;50.546;7.120;2023-06-26T07:01:50;22.71;66.89
13713;DHT22;6928;50.546;7.120;2023-06-26T07:04:17;22.87;66.97
13713;DHT22;6928;50.546;7.120;2023-06-26T07:06:43;23.10;66.97
13713;DHT22;6928;50.546;7.120;2023-06-26T07:09:11;22.69;67.79
13713;DHT22;6928;50.546;7.120;2023-06-26T07:11:38;22.73;68.26
13713;DHT22;6928;50.546;7.120;2023-06-26T07:14:04;22.77;68.40
13713;DHT22;6928;50.546;7.120;2023-06-26T07:16:31;22.60;68.35
13713;DHT22;6928;50.546;7.120;2023-06-26T07:18:57;22.92;68.14
13713;DHT22;6928;50.546;7.120;2023-06-26T07:21:24;23.02;67.54
13713;DHT22;6928;50.546;7.120;2023-06-26T07:23:50;22.88;67.37
13713;DHT22;6928;50.546;7.120;2023-06-26T07:26:18;22.92;68.75
13713;DHT22;6928;50.546;7.120;2023-06-26T07:28:47;23.12;67.23
13713;DHT22;6928;50.546;7.120;2023-06-26T07:31:14;23.01;67.28
13713;DHT22;6928;50.546;7.120;2023-06-26T07:33:42;23.12;68.00
13713;DHT22;6928;50.546;7.120;2023-06-26T07:36:08;23.29;67.02
13713;DHT22;6928;50.546;7.120;2023-06-26T07:38:35;23.17;67.07
13713;DHT22;6928;50.546;7.120;2023-06-26T07:41:01;23.45;67.07
13713;DHT22;6928;50.546;7.120;2023-06-26T07:43:30;23.28;66.87
13713;DHT22;6928;50.546;7.120;2023-06-26T07:45:56;23.21;66.76
13713;DHT22;6928;50.546;7.120;2023-06-26T07:48:23;23.10;66.96
13713;DHT22;6928;50.546;7.120;2023-06-26T07:50:50;23.15;66.86
13713;DHT22;6928;50.546;7.120;2023-06-26T07:53:16;23.38;65.64
13713;DHT22;6928;50.546;7.120;2023-06-26T07:55:43;23.53;65.72
13713;DHT22;6928;50.546;7.120;2023-06-26T07:58:09;23.58;64.99
13713;DHT22;6928;50.546;7.120;2023-06-26T08:00:37;23.39;65.79
13713;DHT22;6928;50.546;7.120;2023-06-26T08:03:04;23.34;66.57
13713;DHT22;6928;50.546;7.120;2023-06-26T08:05:30;23.38;67.66
13713;DHT22;6928;50.546;7.120;2023-06-26T08:07:57;23.46;66.47
13713;DHT22;6928;50.546;7.120;2023-06-26T08:10:23;23.45;66.27
13713;DHT22;6928;50.546;7.120;2023-06-26T08:12:50;23.39;65.21
13713;DHT22;6928;50.546;7.120;2023-06-26T08:15:17;23.66;65.36
13713;DHT22;6928;50.546;7.120;2023-06-26T08:17:47;23.73;64.25
13713;DHT22;6928;50.546;7.120;2023-06-26T08:20:15;23.92;63.06
13713;DHT22;6928;50.546;7.120;2023-06-26T08:22:42;23.78;62.56
13713;DHT22;6928;50.546;7.120;2023-06-26T08:25:10;23.99;62.71
13713;DHT22;6928;50.546;7.120;2023-06-26T08:27:36;23.76;62.22
13713;DHT22;6928;50.546;7.120;2023-06-26T08:30:03;23.72;62.22
13713;DHT22;6928;50.546;7.120;2023-06-26T08:32:30;23.85;62.41
13713;DHT22;6928;50.546;7.120;2023-06-26T08:34:58;23.69;63.27
13713;DHT22;6928;50.546;7.120;2023-06-26T08:37:25;23.55;64.57
13713;DHT22;6928;50.546;7.120;2023-06-26T08:39:52;23.89;61.87
13713;DHT22;6928;50.546;7.120;2023-06-26T08:42:18;24.20;60.71
13713;DHT22;6928;50.546;7.120;2023-06-26T08:44:45;23.96;60.19
13713;DHT22;6928;50.546;7.120;2023-06-26T08:47:12;23.96;63.45
13713;DHT22;6928;50.546;7.120;2023-06-26T08:49:46;23.96;63.64
13713;DHT22;6928;50.546;7.120;2023-06-26T08:52:17;23.93;64.57
13713;DHT22;6928;50.546;7.120;2023-06-26T08:54:51;23.85;63.70
13713;DHT22;6928;50.546;7.120;2023-06-26T08:57:20;23.90;61.27
13713;DHT22;6928;50.546;7.120;2023-06-26T08:59:49;24.14;61.19
13713;DHT22;6928;50.546;7.120;2023-06-26T09:02:16;23.80;62.24
13713;DHT22;6928;50.546;7.120;2023-06-26T09:04:42;24.03;61.22
13713;DHT22;6928;50.546;7.120;2023-06-26T09:07:09;24.04;61.41
13713;DHT22;6928;50.546;7.120;2023-06-26T09:09:37;24.04;61.59
13713;DHT22;6928;50.546;7.120;2023-06-26T09:12:04;24.16;61.01
13713;DHT22;6928;50.546;7.120;2023-06-26T09:14:31;24.22;60.39
13713;DHT22;6928;50.546;7.120;2023-06-26T09:16:58;24.41;59.57
13713;DHT22;6928;50.546;7.120;2023-06-26T09:19:25;24.31;59.30
13713;DHT22;6928;50.546;7.120;2023-06-26T09:21:52;23.99;59.81
13713;DHT22;6928;50.546;7.120;2023-06-26T09:24:19;24.20;59.62
13713;DHT22;6928;50.546;7.120;2023-06-26T09:26:48;24.48;59.00
13713;DHT22;6928;50.546;7.120;2023-06-26T09:29:15;24.45;59.21
13713;DHT22;6928;50.546;7.120;2023-06-26T09:31:43;24.45;58.75
13713;DHT22;6928;50.546;7.120;2023-06-26T09:34:10;24.28;59.88
13713;DHT22;6928;50.546;7.120;2023-06-26T09:36:36;24.24;60.77
13713;DHT22;6928;50.546;7.120;2023-06-26T09:39:04;24.41;59.66
13713;DHT22;6928;50.546;7.120;2023-06-26T09:41:34;24.17;60.70
13713;DHT22;6928;50.546;7.120;2023-06-26T09:44:02;23.96;59.66
13713;DHT22;6928;50.546;7.120;2023-06-26T09:46:30;24.09;58.82
13713;DHT22;6928;50.546;7.120;2023-06-26T09:49:01;24.22;57.24
13713;DHT22;6928;50.546;7.120;2023-06-26T09:51:29;24.31;57.25
13713;DHT22;6928;50.546;7.120;2023-06-26T09:53:56;24.38;56.66
13713;DHT22;6928;50.546;7.120;2023-06-26T09:56:23;24.88;55.84
13713;DHT22;6928;50.546;7.120;2023-06-26T09:58:50;24.40;56.99
13713;DHT22;6928;50.546;7.120;2023-06-26T10:01:19;24.71;57.26
13713;DHT22;6928;50.546;7.120;2023-06-26T10:03:45;25.02;55.81
13713;DHT22;6928;50.546;7.120;2023-06-26T10:06:12;24.59;55.75
13713;DHT22;6928;50.546;7.120;2023-06-26T10:08:39;24.98;56.34
13713;DHT22;6928;50.546;7.120;2023-06-26T10:11:08;24.62;56.10
13713;DHT22;6928;50.546;7.120;2023-06-26T10:13:39;24.58;56.19
13713;DHT22;6928;50.546;7.120;2023-06-26T10:16:09;24.72;56.24
13713;DHT22;6928;50.546;7.120;2023-06-26T10:18:39;24.62;56.41
13713;DHT22;6928;50.546;7.120;2023-06-26T10:21:08;24.34;56.86
13713;DHT22;6928;50.546;7.120;2023-06-26T10:23:36;24.40;55.85
13713;DHT22;6928;50.546;7.120;2023-06-26T10:26:05;24.34;55.52
13713;DHT22;6928;50.546;7.120;2023-06-26T10:28:33;24.48;54.70
13713;DHT22;6928;50.546;7.120;2023-06-26T10:31:01;24.55;55.03
13713;DHT22;6928;50.546;7.120;2023-06-26T10:33:29;24.69;54.88
13713;DHT22;6928;50.546;7.120;2023-06-26T10:36:15;24.96;53.76
13713;DHT22;6928;50.546;7.120;2023-06-26T10:38:50;24.86;52.91
13713;DHT22;6928;50.546;7.120;2023-06-26T10:41:19;24.82;52.31
13713;DHT22;6928;50.546;7.120;2023-06-26T10:43:50;24.75;51.60
13713;DHT22;6928;50.546;7.120;2023-06-26T10:46:18;25.71;50.92
13713;DHT22;6928;50.546;7.120;2023-06-26T10:48:59;25.15;49.89
13713;DHT22;6928;50.546;7.120;2023-06-26T10:51:27;25.26;49.14
13713;DHT22;6928;50.546;7.120;2023-06-26T10:53:54;25.26;48.19
13713;DHT22;6928;50.546;7.120;2023-06-26T10:56:21;25.67;49.43
13713;DHT22;6928;50.546;7.120;2023-06-26T10:59:17;25.33;50.25
13713;DHT22;6928;50.546;7.120;2023-06-26T11:01:45;25.22;50.81
13713;DHT22;6928;50.546;7.120;2023-06-26T11:04:14;25.26;50.38
13713;DHT22;6928;50.546;7.120;2023-06-26T11:06:46;24.99;50.60
13713;DHT22;6928;50.546;7.120;2023-06-26T11:09:17;25.36;50.14
13713;DHT22;6928;50.546;7.120;2023-06-26T11:11:58;25.20;50.91
13713;DHT22;6928;50.546;7.120;2023-06-26T11:14:27;25.26;50.65
13713;DHT22;6928;50.546;7.120;2023-06-26T11:16:55;25.71;50.73
13713;DHT22;6928;50.546;7.120;2023-06-26T11:19:22;25.89;50.13
13713;DHT22;6928;50.546;7.120;2023-06-26T11:22:01;25.64;47.63
13713;DHT22;6928;50.546;7.120;2023-06-26T11:24:28;25.33;48.03
13713;DHT22;6928;50.546;7.120;2023-06-26T11:27:00;25.48;48.18
13713;DHT22;6928;50.546;7.120;2023-06-26T11:29:27;25.40;48.92
13713;DHT22;6928;50.546;7.120;2023-06-26T11:31:59;25.89;48.48
13713;DHT22;6928;50.546;7.120;2023-06-26T11:34:29;25.31;48.80
13713;DHT22;6928;50.546;7.120;2023-06-26T11:36:57;25.13;48.11
13713;DHT22;6928;50.546;7.120;2023-06-26T11:39:26;25.24;47.78
13713;DHT22;6928;50.546;7.120;2023-06-26T11:41:52;25.38;48.03
13713;DHT22;6928;50.546;7.120;2023-06-26T11:44:21;25.53;46.81
13713;DHT22;6928;50.546;7.120;2023-06-26T11:46:51;25.94;46.13
13713;DHT22;6928;50.546;7.120;2023-06-26T11:49:20;25.68;46.67
13713;DHT22;6928;50.546;7.120;2023-06-26T11:51:48;25.75;46.72
13713;DHT22;6928;50.546;7.120;2023-06-26T11:54:23;25.57;46.99
13713;DHT22;6928;50.546;7.120;2023-06-26T11:56:54;25.33;46.23
13713;DHT22;6928;50.546;7.120;2023-06-26T11:59:23;25.20;47.04
13713;DHT22;6928;50.546;7.120;2023-06-26T12:01:50;25.57;47.04
13713;DHT22;6928;50.546;7.120;2023-06-26T12:04:18;25.57;47.21
13713;DHT22;6928;50.546;7.120;2023-06-26T12:06:47;25.60;46.64
13713;DHT22;6928;50.546;7.120;2023-06-26T12:09:17;26.13;47.82
13713;DHT22;6928;50.546;7.120;2023-06-26T12:11:46;25.73;46.67
13713;DHT22;6928;50.546;7.120;2023-06-26T12:14:14;25.85;45.84
13713;DHT22;6928;50.546;7.120;2023-06-26T12:16:41;25.84;45.83
13713;DHT22;6928;50.546;7.120;2023-06-26T12:19:08;25.73;46.91
13713;DHT22;6928;50.546;7.120;2023-06-26T12:21:48;25.44;47.01
13713;DHT22;6928;50.546;7.120;2023-06-26T12:24:20;25.50;46.83
13713;DHT22;6928;50.546;7.120;2023-06-26T12:26:49;26.01;46.96
13713;DHT22;6928;50.546;7.120;2023-06-26T12:29:19;25.68;46.35
13713;DHT22;6928;50.546;7.120;2023-06-26T12:31:49;26.09;45.18
13713;DHT22;6928;50.546;7.120;2023-06-26T12:34:27;26.02;45.04
13713;DHT22;6928;50.546;7.120;2023-06-26T12:37:00;25.80;45.42
13713;DHT22;6928;50.546;7.120;2023-06-26T12:39:28;25.96;45.54
13713;DHT22;6928;50.546;7.120;2023-06-26T12:41:57;25.75;46.20
13713;DHT22;6928;50.546;7.120;2023-06-26T12:44:27;25.71;45.09
13713;DHT22;6928;50.546;7.120;2023-06-26T12:46:55;25.98;44.83
13713;DHT22;6928;50.546;7.120;2023-06-26T12:49:29;26.43;45.45
13713;DHT22;6928;50.546;7.120;2023-06-26T12:51:56;26.44;43.80
13713;DHT22;6928;50.546;7.120;2023-06-26T12:54:23;26.04;44.31
13713;DHT22;6928;50.546;7.120;2023-06-26T12:56:51;26.18;43.39
13713;DHT22;6928;50.546;7.120;2023-06-26T12:59:18;25.75;43.41
13713;DHT22;6928;50.546;7.120;2023-06-26T13:01:44;25.43;44.31
13713;DHT22;6928;50.546;7.120;2023-06-26T13:04:11;25.31;43.95
13713;DHT22;6928;50.546;7.120;2023-06-26T13:06:37;25.40;43.45
13713;DHT22;6928;50.546;7.120;2023-06-26T13:09:04;25.70;43.74
13713;DHT22;6928;50.546;7.120;2023-06-26T13:11:31;25.48;44.47
13713;DHT22;6928;50.546;7.120;2023-06-26T13:13:59;25.80;44.86
13713;DHT22;6928;50.546;7.120;2023-06-26T13:16:26;25.15;45.49
13713;DHT22;6928;50.546;7.120;2023-06-26T13:18:52;24.96;45.75
13713;DHT22;6928;50.546;7.120;2023-06-26T13:21:19;25.13;44.62
13713;DHT22;6928;50.546;7.120;2023-06-26T13:23:45;25.31;45.06
13713;DHT22;6928;50.546;7.120;2023-06-26T13:26:12;25.28;44.53
13713;DHT22;6928;50.546;7.120;2023-06-26T13:28:39;25.47;45.12
13713;DHT22;6928;50.546;7.120;2023-06-26T13:31:07;25.31;45.57
13713;DHT22;6928;50.546;7.120;2023-06-26T13:33:34;25.24;45.74
13713;DHT22;6928;50.546;7.120;2023-06-26T13:36:00;24.82;46.85
13713;DHT22;6928;50.546;7.120;2023-06-26T13:38:30;25.10;46.89
13713;DHT22;6928;50.546;7.120;2023-06-26T13:40:56;25.28;46.78
13713;DHT22;6928;50.546;7.120;2023-06-26T13:43:24;25.24;47.28
13713;DHT22;6928;50.546;7.120;2023-06-26T13:45:52;25.26;46.29
13713;DHT22;6928;50.546;7.120;2023-06-26T13:48:20;25.41;45.75
13713;DHT22;6928;50.546;7.120;2023-06-26T13:50:47;25.70;45.08
13713;DHT22;6928;50.546;7.120;2023-06-26T13:53:13;26.05;44.52
13713;DHT22;6928;50.546;7.120;2023-06-26T13:55:40;25.40;44.15
13713;DHT22;6928;50.546;7.120;2023-06-26T13:58:07;25.40;45.13
13713;DHT22;6928;50.546;7.120;2023-06-26T14:00:35;25.26;43.41
13713;DHT22;6928;50.546;7.120;2023-06-26T14:03:02;25.41;44.18
13713;DHT22;6928;50.546;7.120;2023-06-26T14:05:30;25.82;43.49
13713;DHT22;6928;50.546;7.120;2023-06-26T14:07:57;25.81;42.53
13713;DHT22;6928;50.546;7.120;2023-06-26T14:10:24;25.26;42.76
13713;DHT22;6928;50.546;7.120;2023-06-26T14:12:51;25.37;43.07
13713;DHT22;6928;50.546;7.120;2023-06-26T14:15:17;25.22;42.52
13713;DHT22;6928;50.546;7.120;2023-06-26T14:17:44;25.50;41.52
13713;DHT22;6928;50.546;7.120;2023-06-26T14:20:11;25.77;41.31
13713;DHT22;6928;50.546;7.120;2023-06-26T14:22:40;25.68;40.81
13713;DHT22;6928;50.546;7.120;2023-06-26T14:25:07;25.67;41.34
13713;DHT22;6928;50.546;7.120;2023-06-26T14:27:34;26.15;42.41
13713;DHT22;6928;50.546;7.120;2023-06-26T14:30:00;25.41;43.98
13713;DHT22;6928;50.546;7.120;2023-06-26T14:32:27;25.38;43.95
13713;DHT22;6928;50.546;7.120;2023-06-26T14:34:54;25.43;43.41
13713;DHT22;6928;50.546;7.120;2023-06-26T14:37:20;25.03;44.28
13713;DHT22;6928;50.546;7.120;2023-06-26T14:39:48;25.19;43.73
13713;DHT22;6928;50.546;7.120;2023-06-26T14:42:15;25.53;42.35
13713;DHT22;6928;50.546;7.120;2023-06-26T14:44:42;25.60;44.08
13713;DHT22;6928;50.546;7.120;2023-06-26T14:47:08;25.15;44.63
13713;DHT22;6928;50.546;7.120;2023-06-26T14:49:34;24.99;44.83
13713;DHT22;6928;50.546;7.120;2023-06-26T14:52:01;24.99;44.67
13713;DHT22;6928;50.546;7.120;2023-06-26T14:54:28;25.16;44.77
13713;DHT22;6928;50.546;7.120;2023-06-26T14:56:55;25.09;43.69
13713;DHT22;6928;50.546;7.120;2023-06-26T14:59:22;25.12;44.41
13713;DHT22;6928;50.546;7.120;2023-06-26T15:01:48;25.15;44.25
13713;DHT22;6928;50.546;7.120;2023-06-26T15:04:15;25.02;44.29
13713;DHT22;6928;50.546;7.120;2023-06-26T15:06:42;25.16;43.41
13713;DHT22;6928;50.546;7.120;2023-06-26T15:09:08;25.28;43.55
13713;DHT22;6928;50.546;7.120;2023-06-26T15:11:35;24.99;44.13
13713;DHT22;6928;50.546;7.120;2023-06-26T15:14:03;24.98;43.36
13713;DHT22;6928;50.546;7.120;2023-06-26T15:16:29;24.83;43.13
13713;DHT22;6928;50.546;7.120;2023-06-26T15:18:56;25.00;42.30
13713;DHT22;6928;50.546;7.120;2023-06-26T15:21:23;24.82;42.92
13713;DHT22;6928;50.546;7.120;2023-06-26T15:23:50;24.90;43.40
13713;DHT22;6928;50.546;7.120;2023-06-26T15:26:17;24.71;43.08
13713;DHT22;6928;50.546;7.120;2023-06-26T15:28:43;24.64;44.21
13713;DHT22;6928;50.546;7.120;2023-06-26T15:31:11;24.41;45.33
13713;DHT22;6928;50.546;7.120;2023-06-26T15:33:38;24.49;45.77
13713;DHT22;6928;50.546;7.120;2023-06-26T15:36:05;24.76;43.74
13713;DHT22;6928;50.546;7.120;2023-06-26T15:38:31;24.45;44.05
13713;DHT22;6928;50.546;7.120;2023-06-26T15:40:58;24.17;42.82
13713;DHT22;6928;50.546;7.120;2023-06-26T15:43:25;24.40;43.04
13713;DHT22;6928;50.546;7.120;2023-06-26T15:45:51;24.51;43.46
13713;DHT22;6928;50.546;7.120;2023-06-26T15:48:19;24.68;43.76
13713;DHT22;6928;50.546;7.120;2023-06-26T15:50:46;24.45;42.67